Time;durP1;ratioP1;P1;durP2;ratioP2;P2;SDS_P1;SDS_P2;PMS_P1;PMS_P2;Temp;Humidity;BMP_temperature;BMP_pressure;BME280_temperature;BME280_humidity;BME280_pressure;Samples;Min_cycle;Max_cycle;Signal;HPM_P1;HPM_P2
2022/05/27 00:06:40;;;;;;;4.50;1.90;;;18.70;65.10;;;;;;21093929;28;20204;-71
2022/05/27 00:16:44;;;;;;;4.00;1.70;;;18.70;65.30;;;;;;21090711;28;20235;-65
2022/05/27 00:26:45;;;;;;;3.23;1.77;;;18.70;65.50;;;;;;20923458;28;20699;-61
2022/05/27 00:36:47;;;;;;;3.20;1.77;;;18.60;65.70;;;;;;20923151;28;20697;-65
2022/05/27 00:46:49;;;;;;;2.20;1.87;;;18.50;66.30;;;;;;20921999;28;20257;-70
2022/05/27 00:56:57;;;;;;;3.37;1.70;;;18.40;66.60;;;;;;20921138;28;20234;-65
2022/05/27 01:06:59;;;;;;;5.80;2.13;;;18.30;66.90;;;;;;20920274;28;20209;-69
2022/05/27 01:17:16;;;;;;;5.50;2.30;;;18.20;67.50;;;;;;20922406;28;20707;-76
2022/05/27 01:27:33;;;;;;;4.37;2.00;;;18.10;68.00;;;;;;21085219;28;20260;-62
2022/05/27 01:37:43;;;;;;;3.17;1.90;;;17.90;68.30;;;;;;21084458;28;20235;-63
2022/05/27 01:48:15;;;;;;;2.87;1.90;;;17.90;68.90;;;;;;21082803;28;20741;-65
2022/05/27 01:58:23;;;;;;;4.77;1.73;;;17.80;69.40;;;;;;21082729;28;20234;-62
2022/05/27 02:08:30;;;;;;;7.67;2.10;;;17.60;70.00;;;;;;21082560;28;20209;-62
2022/05/27 02:18:52;;;;;;;4.50;2.03;;;17.60;70.50;;;;;;21080477;28;20233;-64
2022/05/27 02:29:03;;;;;;;3.03;1.70;;;17.60;70.80;;;;;;21082512;28;20206;-63
2022/05/27 02:39:07;;;;;;;5.10;2.00;;;17.50;70.90;;;;;;21081424;28;20240;-69
2022/05/27 02:49:35;;;;;;;6.13;2.00;;;17.50;71.50;;;;;;21080370;28;20656;-67
2022/05/27 02:59:40;;;;;;;3.63;2.20;;;17.40;72.00;;;;;;21077979;28;20781;-65
2022/05/27 03:10:15;;;;;;;5.03;2.10;;;17.30;72.40;;;;;;21078275;28;20210;-65
2022/05/27 03:20:47;;;;;;;6.67;2.70;;;17.20;72.80;;;;;;21077845;28;20237;-66
2022/05/27 03:31:05;;;;;;;4.03;2.17;;;17.10;73.40;;;;;;21059586;28;20212;-67
2022/05/27 03:41:39;;;;;;;3.90;2.10;;;17.00;74.00;;;;;;21077178;28;20244;-62
2022/05/27 03:52:09;;;;;;;6.47;3.57;;;17.00;74.40;;;;;;21076645;28;20210;-62
2022/05/27 04:02:11;;;;;;;5.77;2.83;;;17.00;75.20;;;;;;21049978;28;20217;-62
2022/05/27 04:12:13;;;;;;;6.30;2.40;;;16.90;76.10;;;;;;21080433;28;20207;-61
2022/05/27 04:22:15;;;;;;;3.87;2.30;;;17.00;76.40;;;;;;21091167;28;20247;-70
2022/05/27 04:32:18;;;;;;;6.17;2.40;;;17.10;76.80;;;;;;21130205;28;20213;-63
2022/05/27 04:42:19;;;;;;;5.73;2.23;;;17.10;77.10;;;;;;21108675;28;20688;-64
2022/05/27 04:52:27;;;;;;;5.13;2.57;;;17.20;77.40;;;;;;21088711;28;20221;-63
2022/05/27 05:02:29;;;;;;;9.17;2.30;;;17.30;77.60;;;;;;21086519;28;20519;-62
2022/05/27 05:12:37;;;;;;;4.40;2.17;;;17.40;77.70;;;;;;21085563;28;20227;-62
2022/05/27 05:22:39;;;;;;;4.90;2.37;;;17.50;77.80;;;;;;21084525;28;20235;-61
2022/05/27 05:32:41;;;;;;;3.33;2.30;;;17.60;77.90;;;;;;21084124;28;20583;-63
2022/05/27 05:42:46;;;;;;;7.20;2.67;;;17.60;78.30;;;;;;21083267;28;20259;-62
2022/05/27 05:52:48;;;;;;;6.40;2.77;;;17.60;78.50;;;;;;21082502;28;20334;-72
2022/05/27 06:02:50;;;;;;;8.97;2.80;;;17.80;78.80;;;;;;21080998;28;20205;-68
2022/05/27 06:12:52;;;;;;;8.23;2.90;;;17.90;78.80;;;;;;21079302;28;20295;-67
2022/05/27 06:22:54;;;;;;;6.27;2.90;;;17.90;78.90;;;;;;21079363;28;20420;-63
2022/05/27 06:43:16;;;;;;;5.47;2.63;;;18.20;78.90;;;;;;21063071;28;20211;-72
2022/05/27 06:53:18;;;;;;;3.90;2.80;;;18.40;78.90;;;;;;21076985;28;20332;-63
2022/05/27 07:03:20;;;;;;;5.43;2.73;;;18.60;78.50;;;;;;21077442;28;20215;-63
2022/05/27 07:13:22;;;;;;;5.37;2.47;;;18.50;78.20;;;;;;21058733;28;20304;-62
2022/05/27 07:23:23;;;;;;;5.30;2.27;;;18.60;78.10;;;;;;21058872;28;20290;-62
2022/05/27 07:33:25;;;;;;;4.10;2.30;;;18.60;78.00;;;;;;21077707;28;20253;-62
2022/05/27 07:43:27;;;;;;;3.93;2.10;;;18.70;78.20;;;;;;21078506;28;20309;-73
2022/05/27 07:53:29;;;;;;;8.03;2.10;;;18.80;78.40;;;;;;21074448;28;20244;-69
2022/05/27 08:03:31;;;;;;;5.30;2.00;;;18.60;78.00;;;;;;21091653;28;20281;-66
2022/05/27 08:13:34;;;;;;;3.90;2.10;;;18.50;77.90;;;;;;21090517;28;20235;-73
2022/05/27 08:23:36;;;;;;;3.40;2.10;;;18.70;78.10;;;;;;21088402;28;20261;-66
2022/05/27 08:44:13;;;;;;;2.50;2.13;;;18.70;77.80;;;;;;21087556;28;20259;-70
2022/05/27 08:54:22;;;;;;;8.00;2.33;;;18.60;77.90;;;;;;21086737;28;20321;-73
2022/05/27 09:04:38;;;;;;;3.70;2.33;;;18.40;78.30;;;;;;21084968;28;20207;-68
2022/05/27 09:15:04;;;;;;;5.60;2.63;;;18.40;78.60;;;;;;21082191;28;20229;-77
2022/05/27 09:25:50;;;;;;;4.20;2.17;;;18.50;78.80;;;;;;21082001;28;20257;-70
2022/05/27 09:36:03;;;;;;;5.23;2.60;;;18.60;79.10;;;;;;21039200;28;20234;-70
2022/05/27 09:46:10;;;;;;;3.93;2.70;;;18.60;79.40;;;;;;21106691;28;20207;-73
2022/05/27 09:56:14;;;;;;;25.50;17.33;;;18.60;79.20;;;;;;21118682;28;20241;-74
2022/05/27 10:06:17;;;;;;;5.70;2.90;;;18.70;78.80;;;;;;21086881;28;20668;-72
2022/05/27 10:16:26;;;;;;;3.23;2.93;;;18.70;78.50;;;;;;21080848;28;20239;-68
2022/05/27 10:26:34;;;;;;;3.63;2.80;;;18.80;78.10;;;;;;21080028;28;20244;-61
2022/05/27 10:36:52;;;;;;;4.80;2.80;;;18.70;78.10;;;;;;21079928;28;20289;-62
2022/05/27 10:46:56;;;;;;;4.03;2.90;;;18.80;78.50;;;;;;21079115;28;20236;-63
2022/05/27 11:07:38;;;;;;;5.70;2.97;;;19.00;79.10;;;;;;21078194;28;20212;-66
2022/05/27 11:18:05;;;;;;;3.47;2.53;;;19.20;78.60;;;;;;21078198;28;20239;-68
2022/05/27 11:28:15;;;;;;;5.67;2.53;;;19.40;78.30;;;;;;21075184;28;20218;-61
2022/05/27 11:38:38;;;;;;;4.00;2.60;;;19.80;77.80;;;;;;21092817;28;20234;-62
2022/05/27 11:49:27;;;;;;;10.37;3.20;;;20.00;75.90;;;;;;21092180;28;20204;-62
2022/05/27 11:59:33;;;;;;;5.43;3.03;;;19.90;75.40;;;;;;21071624;28;20242;-61
2022/05/27 12:09:58;;;;;;;6.23;2.53;;;19.70;76.30;;;;;;21090032;28;20203;-63
2022/05/27 12:20:01;;;;;;;4.30;2.67;;;19.50;77.80;;;;;;21089958;28;20604;-63
2022/05/27 12:30:10;;;;;;;4.70;2.67;;;19.30;78.80;;;;;;21089938;28;20684;-75
2022/05/27 12:40:18;;;;;;;4.53;2.40;;;19.40;80.00;;;;;;21088307;28;20235;-63
2022/05/27 12:50:30;;;;;;;3.90;2.90;;;19.50;79.40;;;;;;21087977;28;20689;-67
2022/05/27 13:10:53;;;;;;;2.60;2.13;;;19.40;79.50;;;;;;21086524;28;20658;-64
2022/05/27 13:21:21;;;;;;;3.30;2.17;;;19.50;80.10;;;;;;21085324;28;20237;-64
2022/05/27 13:31:39;;;;;;;2.97;2.23;;;19.70;79.50;;;;;;21084111;28;20219;-61
2022/05/27 13:41:50;;;;;;;2.90;2.53;;;19.50;80.10;;;;;;21083484;28;20257;-65
2022/05/27 13:52:01;;;;;;;2.97;2.20;;;19.10;83.20;;;;;;21082123;28;20684;-67
2022/05/27 14:02:13;;;;;;;4.97;2.40;;;18.40;87.30;;;;;;21063970;28;20332;-62
2022/05/27 14:12:19;;;;;;;2.40;1.60;;;17.90;89.60;;;;;;21081262;28;20297;-66
2022/05/27 14:32:43;;;;;;;2.50;1.60;;;18.10;91.50;;;;;;21079669;28;20269;-62
2022/05/27 14:42:46;;;;;;;1.50;1.23;;;18.50;91.80;;;;;;21078974;28;20230;-66
2022/05/27 14:52:59;;;;;;;1.83;1.33;;;18.70;91.50;;;;;;21078754;28;20230;-62
2022/05/27 15:03:22;;;;;;;2.03;1.70;;;19.00;91.30;;;;;;21111912;28;20242;-65
2022/05/27 15:13:42;;;;;;;2.30;1.80;;;19.30;90.70;;;;;;21102021;28;20321;-63
2022/05/27 15:24:09;;;;;;;2.43;2.00;;;19.60;90.40;;;;;;21080808;28;20603;-63
2022/05/27 15:34:13;;;;;;;2.87;2.40;;;19.60;88.80;;;;;;21076284;28;20256;-62
2022/05/27 15:44:16;;;;;;;3.53;2.37;;;19.60;88.50;;;;;;21072440;28;20227;-62
2022/05/27 15:54:19;;;;;;;3.03;2.23;;;19.60;87.40;;;;;;21056455;28;20239;-65
2022/05/27 16:04:21;;;;;;;4.27;2.33;;;19.90;86.50;;;;;;21076577;28;20217;-61
2022/05/27 16:14:22;;;;;;;2.77;2.40;;;20.90;83.50;;;;;;21071754;28;20704;-64
2022/05/27 16:24:24;;;;;;;3.50;2.80;;;20.80;82.00;;;;;;21090370;28;20599;-64
2022/05/27 16:34:26;;;;;;;4.27;2.37;;;20.50;82.20;;;;;;21071115;28;20236;-61
2022/05/27 16:44:28;;;;;;;3.43;1.83;;;19.90;82.70;;;;;;21088711;28;20208;-66
2022/05/27 16:54:29;;;;;;;2.63;1.70;;;19.80;82.80;;;;;;21087922;28;20240;-63
2022/05/27 17:04:31;;;;;;;1.73;1.60;;;19.80;82.70;;;;;;21087556;28;20216;-63
2022/05/27 17:14:33;;;;;;;2.43;1.70;;;19.70;82.80;;;;;;21085944;28;20237;-65
2022/05/27 17:24:35;;;;;;;1.77;1.40;;;19.70;83.00;;;;;;21084079;28;20239;-63
2022/05/27 17:34:37;;;;;;;1.40;1.30;;;19.80;82.70;;;;;;21084813;28;20231;-66
2022/05/27 17:44:38;;;;;;;2.70;1.50;;;19.90;82.00;;;;;;21083872;28;20300;-71
2022/05/27 17:54:41;;;;;;;3.53;1.30;;;20.20;81.00;;;;;;21065009;28;20237;-62
2022/05/27 18:04:43;;;;;;;2.13;1.27;;;20.20;80.50;;;;;;21083013;28;20242;-61
2022/05/27 18:14:45;;;;;;;2.03;1.30;;;19.80;80.70;;;;;;21102678;28;20262;-68
2022/05/27 18:24:47;;;;;;;2.13;1.30;;;19.50;81.20;;;;;;21093986;28;20294;-74
2022/05/27 18:34:49;;;;;;;2.33;1.63;;;19.40;81.60;;;;;;21082228;28;20237;-73
2022/05/27 18:44:51;;;;;;;3.73;1.50;;;19.30;82.10;;;;;;21080210;28;20211;-72
2022/05/27 18:54:54;;;;;;;3.87;1.40;;;19.20;82.40;;;;;;21079922;28;20235;-72
2022/05/27 19:04:56;;;;;;;2.00;1.50;;;19.10;82.70;;;;;;21060418;28;20292;-69
2022/05/27 19:14:57;;;;;;;3.27;1.90;;;19.00;82.60;;;;;;21078110;28;20698;-70
2022/05/27 19:25:00;;;;;;;4.53;2.20;;;18.90;82.90;;;;;;21058984;28;20245;-72
2022/05/27 19:35:03;;;;;;;6.33;2.17;;;18.80;82.60;;;;;;21078389;28;20605;-70
2022/05/27 19:45:05;;;;;;;2.67;1.80;;;18.70;79.40;;;;;;21085040;28;20585;-75
2022/05/27 19:55:07;;;;;;;8.70;2.20;;;18.50;76.30;;;;;;21093014;28;20237;-71
2022/05/27 20:05:10;;;;;;;3.30;1.87;;;18.30;71.00;;;;;;21092354;28;20203;-73
2022/05/27 20:15:23;;;;;;;8.10;1.97;;;18.10;67.30;;;;;;21105437;28;20240;-70
2022/05/27 20:25:25;;;;;;;5.23;2.13;;;18.00;65.50;;;;;;21137608;28;20234;-73
2022/05/27 20:46:03;;;;;;;5.23;1.90;;;17.80;62.70;;;;;;21013969;28;20213;-71
2022/05/27 20:56:05;;;;;;;5.07;2.00;;;17.70;61.20;;;;;;21070184;28;20712;-73
2022/05/27 21:06:07;;;;;;;5.57;2.03;;;17.70;60.00;;;;;;21087454;28;20235;-71
2022/05/27 21:16:09;;;;;;;6.90;2.30;;;17.60;59.10;;;;;;21086959;28;20622;-70
2022/05/27 21:26:12;;;;;;;5.63;2.07;;;17.50;58.50;;;;;;21085530;28;20292;-76
2022/05/27 21:36:14;;;;;;;8.10;2.30;;;17.50;58.10;;;;;;21084878;28;20245;-73
2022/05/27 21:46:20;;;;;;;7.23;2.20;;;17.30;57.40;;;;;;21084761;28;20204;-67
2022/05/27 21:56:22;;;;;;;12.93;2.00;;;17.20;57.00;;;;;;21083459;28;20758;-65
2022/05/27 22:06:24;;;;;;;6.13;2.43;;;17.10;56.60;;;;;;21082512;28;20667;-61
2022/05/27 22:16:26;;;;;;;7.67;2.37;;;17.00;56.10;;;;;;21081992;28;20704;-68
2022/05/27 22:26:28;;;;;;;6.00;2.60;;;16.80;56.20;;;;;;21081389;28;20235;-63
2022/05/27 22:36:31;;;;;;;11.63;2.83;;;16.50;57.50;;;;;;21080855;28;20285;-62
2022/05/27 22:46:32;;;;;;;6.13;2.43;;;16.20;58.40;;;;;;21080645;28;20205;-61
2022/05/27 22:56:35;;;;;;;8.20;2.53;;;16.00;58.70;;;;;;21078855;28;20239;-61
2022/05/27 23:06:36;;;;;;;8.10;2.40;;;15.80;58.90;;;;;;21078791;28;20220;-66
2022/05/27 23:26:59;;;;;;;8.47;2.23;;;15.50;58.80;;;;;;20930696;28;20206;-62
2022/05/27 23:37:02;;;;;;;6.53;2.40;;;15.50;58.80;;;;;;20927953;28;20246;-62
2022/05/27 23:47:04;;;;;;;3.50;1.73;;;15.40;58.90;;;;;;20942780;28;20208;-62
2022/05/27 23:57:07;;;;;;;10.83;2.20;;;15.20;59.20;;;;;;20941702;28;20269;-61
